Time;durP1;ratioP1;P1;durP2;ratioP2;P2;SDS_P1;SDS_P2;PMS_P1;PMS_P2;Temp;Humidity;BMP_temperature;BMP_pressure;BME280_temperature;BME280_humidity;BME280_pressure;Samples;Min_cycle;Max_cycle;Signal;HPM_P1;HPM_P2
2022/01/01 00:00:48;;;;;;;153.63;86.25;;;;;;;;;;5096630;28;20024;-41
2022/01/01 00:03:14;;;;;;;176.70;96.95;;;;;;;;;;5094386;28;20054;-41
2022/01/01 00:05:40;;;;;;;176.18;95.32;;;;;;;;;;5096370;28;20036;-42
2022/01/01 00:08:11;;;;;;;164.80;93.53;;;;;;;;;;5096235;28;20024;-39
2022/01/01 00:10:37;;;;;;;164.53;92.17;;;;;;;;;;5096124;28;20054;-40
2022/01/01 00:13:03;;;;;;;148.90;84.65;;;;;;;;;;5096279;28;20032;-43
2022/01/01 00:15:29;;;;;;;148.35;88.13;;;;;;;;;;5096135;28;20553;-44
2022/01/01 00:17:57;;;;;;;170.75;98.30;;;;;;;;;;5096258;28;20032;-42
2022/01/01 00:20:23;;;;;;;196.25;108.63;;;;;;;;;;5095932;28;20560;-39
2022/01/01 00:22:49;;;;;;;222.38;127.35;;;;;;;;;;5096090;28;20077;-40
2022/01/01 00:25:15;;;;;;;247.05;145.52;;;;;;;;;;5095835;28;20054;-40
2022/01/01 00:27:42;;;;;;;312.63;182.35;;;;;;;;;;5095870;28;20493;-39
2022/01/01 00:30:08;;;;;;;299.02;172.57;;;;;;;;;;5095727;28;20032;-39
2022/01/01 00:32:35;;;;;;;287.27;177.40;;;;;;;;;;5095583;28;20020;-41
2022/01/01 00:35:01;;;;;;;274.83;166.05;;;;;;;;;;5078491;28;20543;-41
2022/01/01 00:37:27;;;;;;;234.95;138.50;;;;;;;;;;5075088;28;20032;-39
2022/01/01 00:39:55;;;;;;;244.15;145.73;;;;;;;;;;5075413;28;20025;-41
2022/01/01 00:42:21;;;;;;;210.20;130.95;;;;;;;;;;5075532;28;20020;-40
2022/01/01 00:44:47;;;;;;;225.02;134.90;;;;;;;;;;5075623;28;20024;-39
2022/01/01 00:47:13;;;;;;;231.48;141.32;;;;;;;;;;5075230;28;20549;-40
2022/01/01 00:49:39;;;;;;;193.70;118.20;;;;;;;;;;5075172;28;20028;-39
2022/01/01 00:52:05;;;;;;;176.90;107.28;;;;;;;;;;5073885;28;20059;-40
2022/01/01 00:54:31;;;;;;;128.75;83.60;;;;;;;;;;5075006;28;20037;-40
2022/01/01 00:56:58;;;;;;;131.65;79.65;;;;;;;;;;5075204;28;20021;-39
2022/01/01 00:59:24;;;;;;;113.38;71.13;;;;;;;;;;5075090;28;20052;-39
2022/01/01 01:01:50;;;;;;;105.00;65.95;;;;;;;;;;5081295;28;20023;-39
2022/01/01 01:04:16;;;;;;;116.72;73.00;;;;;;;;;;5095090;28;20533;-39
2022/01/01 01:06:45;;;;;;;121.85;76.50;;;;;;;;;;5094069;28;20030;-40
2022/01/01 01:09:11;;;;;;;169.50;95.55;;;;;;;;;;5095157;28;20027;-40
2022/01/01 01:11:45;;;;;;;175.27;93.18;;;;;;;;;;5094938;28;20020;-40
2022/01/01 01:14:19;;;;;;;198.43;99.00;;;;;;;;;;5094968;28;20550;-39
2022/01/01 01:16:46;;;;;;;214.63;109.00;;;;;;;;;;5094940;28;20064;-39
2022/01/01 01:19:12;;;;;;;257.50;123.00;;;;;;;;;;5094714;28;20507;-42
2022/01/01 01:21:38;;;;;;;215.63;114.72;;;;;;;;;;5094978;28;20031;-39
2022/01/01 01:24:05;;;;;;;195.60;107.05;;;;;;;;;;5094716;28;20032;-38
2022/01/01 01:26:31;;;;;;;183.20;102.28;;;;;;;;;;5094751;28;20023;-38
2022/01/01 01:28:59;;;;;;;160.48;93.60;;;;;;;;;;5094529;28;20083;-39
2022/01/01 01:31:28;;;;;;;150.80;90.07;;;;;;;;;;5094563;28;20024;-38
2022/01/01 01:33:54;;;;;;;144.90;87.53;;;;;;;;;;5094431;28;20471;-38
2022/01/01 01:36:20;;;;;;;149.80;90.50;;;;;;;;;;5094627;28;20036;-42
2022/01/01 01:38:46;;;;;;;121.05;75.72;;;;;;;;;;5094816;28;20024;-40
2022/01/01 01:41:15;;;;;;;105.40;67.78;;;;;;;;;;5094859;28;20031;-41
2022/01/01 01:43:41;;;;;;;109.75;70.25;;;;;;;;;;5094880;28;20413;-40
2022/01/01 01:46:12;;;;;;;118.43;75.10;;;;;;;;;;5094827;28;20024;-41
2022/01/01 01:48:38;;;;;;;106.37;72.07;;;;;;;;;;5094535;28;20512;-40
2022/01/01 01:51:05;;;;;;;133.73;84.18;;;;;;;;;;5094510;28;20756;-41
2022/01/01 01:53:31;;;;;;;152.23;88.03;;;;;;;;;;5094367;28;20054;-42
2022/01/01 01:56:00;;;;;;;165.77;91.57;;;;;;;;;;5094585;28;20024;-42
2022/01/01 01:58:28;;;;;;;181.98;98.80;;;;;;;;;;5094564;28;20492;-43
2022/01/01 02:03:39;;;;;;;144.73;88.25;;;;;;;;;;5094564;28;20035;-45
2022/01/01 02:06:06;;;;;;;160.60;99.78;;;;;;;;;;5094293;28;20095;-40
2022/01/01 02:08:35;;;;;;;139.85;79.25;;;;;;;;;;5094462;28;20115;-40
2022/01/01 02:11:03;;;;;;;125.53;77.32;;;;;;;;;;5094262;28;20594;-40
2022/01/01 02:13:33;;;;;;;134.13;76.03;;;;;;;;;;5094030;28;20123;-39
2022/01/01 02:16:31;;;;;;;127.88;69.32;;;;;;;;;;5094103;28;20394;-41
2022/01/01 02:18:57;;;;;;;135.20;71.07;;;;;;;;;;5093889;28;20024;-41
2022/01/01 02:21:26;;;;;;;110.40;69.75;;;;;;;;;;5094181;28;20017;-40
2022/01/01 02:23:58;;;;;;;113.72;70.55;;;;;;;;;;5093981;28;20461;-45
2022/01/01 02:26:35;;;;;;;137.02;84.70;;;;;;;;;;5092930;28;20423;-42
2022/01/01 02:29:03;;;;;;;126.10;80.38;;;;;;;;;;5094503;28;20063;-46
2022/01/01 02:31:31;;;;;;;114.28;71.55;;;;;;;;;;5093824;28;20545;-42
2022/01/01 02:34:02;;;;;;;145.90;91.05;;;;;;;;;;5093842;28;20081;-41
2022/01/01 02:36:28;;;;;;;134.32;84.57;;;;;;;;;;5093737;28;20035;-41
2022/01/01 02:38:54;;;;;;;146.80;92.65;;;;;;;;;;5093891;28;20432;-40
2022/01/01 02:41:21;;;;;;;135.57;87.72;;;;;;;;;;5093612;28;20027;-40
2022/01/01 02:43:47;;;;;;;138.07;86.53;;;;;;;;;;5093733;28;20107;-40
2022/01/01 02:46:14;;;;;;;158.25;93.72;;;;;;;;;;5093568;28;20498;-41
2022/01/01 02:48:44;;;;;;;137.20;87.47;;;;;;;;;;5093616;28;20020;-39
2022/01/01 02:51:10;;;;;;;136.65;85.78;;;;;;;;;;5093630;28;20052;-43
2022/01/01 02:53:36;;;;;;;135.60;83.93;;;;;;;;;;5093544;28;20040;-42
2022/01/01 02:56:04;;;;;;;148.27;89.45;;;;;;;;;;5093418;28;20032;-43
2022/01/01 02:58:30;;;;;;;136.88;85.97;;;;;;;;;;5093377;28;20525;-42
2022/01/01 03:00:56;;;;;;;149.65;89.22;;;;;;;;;;5093550;28;20054;-42
2022/01/01 03:03:25;;;;;;;136.93;84.80;;;;;;;;;;5093568;28;20031;-42
2022/01/01 03:05:51;;;;;;;155.05;90.43;;;;;;;;;;5093470;28;20037;-41
2022/01/01 03:08:17;;;;;;;145.25;87.03;;;;;;;;;;5093541;28;20024;-43
2022/01/01 03:10:45;;;;;;;134.10;84.05;;;;;;;;;;5093398;28;20024;-41
2022/01/01 03:13:11;;;;;;;134.95;84.70;;;;;;;;;;5095810;28;20028;-45
2022/01/01 03:15:37;;;;;;;128.27;82.28;;;;;;;;;;5097386;28;20024;-41
2022/01/01 03:18:03;;;;;;;130.68;82.07;;;;;;;;;;5097472;28;20032;-43
2022/01/01 03:20:29;;;;;;;129.73;81.70;;;;;;;;;;5096318;28;20032;-41
2022/01/01 03:22:55;;;;;;;120.40;77.57;;;;;;;;;;5097440;28;20020;-42
2022/01/01 03:25:21;;;;;;;111.25;72.65;;;;;;;;;;5097446;28;20028;-42
2022/01/01 03:27:47;;;;;;;113.63;74.05;;;;;;;;;;5096822;28;20055;-40
2022/01/01 03:30:13;;;;;;;116.03;73.60;;;;;;;;;;5097185;28;20058;-41
2022/01/01 03:32:40;;;;;;;109.75;70.93;;;;;;;;;;5097505;28;20028;-46
2022/01/01 03:35:06;;;;;;;115.18;74.13;;;;;;;;;;5097408;28;20032;-41
2022/01/01 03:37:32;;;;;;;118.45;75.20;;;;;;;;;;5097380;28;20405;-41
2022/01/01 03:39:58;;;;;;;111.50;71.07;;;;;;;;;;5097270;28;20028;-42
2022/01/01 03:42:24;;;;;;;105.10;69.45;;;;;;;;;;5097023;28;20023;-42
2022/01/01 03:44:50;;;;;;;111.00;72.82;;;;;;;;;;5097143;28;20021;-41
2022/01/01 03:47:16;;;;;;;108.53;68.72;;;;;;;;;;5097111;28;20024;-42
2022/01/01 03:49:42;;;;;;;110.53;69.93;;;;;;;;;;5096967;28;20028;-40
2022/01/01 03:52:08;;;;;;;112.00;70.75;;;;;;;;;;5097123;28;20081;-45
2022/01/01 03:54:35;;;;;;;103.55;69.10;;;;;;;;;;5096826;28;20370;-39
2022/01/01 03:57:01;;;;;;;103.70;67.55;;;;;;;;;;5096947;28;20473;-41
2022/01/01 03:59:27;;;;;;;103.22;68.85;;;;;;;;;;5095423;28;20040;-40
2022/01/01 04:01:55;;;;;;;106.22;68.00;;;;;;;;;;5096673;28;20473;-40
2022/01/01 04:04:23;;;;;;;105.00;65.20;;;;;;;;;;5096529;28;20131;-40
2022/01/01 04:06:52;;;;;;;105.75;68.07;;;;;;;;;;5096562;28;20017;-40
2022/01/01 04:09:18;;;;;;;108.55;68.70;;;;;;;;;;5096641;28;20100;-40
2022/01/01 04:11:51;;;;;;;107.13;71.55;;;;;;;;;;5096402;28;20027;-40
2022/01/01 04:14:17;;;;;;;100.18;67.90;;;;;;;;;;5096396;28;20396;-40
2022/01/01 04:16:46;;;;;;;102.15;67.57;;;;;;;;;;5096700;28;20020;-42
2022/01/01 04:19:12;;;;;;;103.82;65.90;;;;;;;;;;5096507;28;20032;-40
2022/01/01 04:21:41;;;;;;;103.18;66.13;;;;;;;;;;5096620;28;20024;-40
2022/01/01 04:24:07;;;;;;;102.28;67.28;;;;;;;;;;5095825;28;20031;-39
2022/01/01 04:26:33;;;;;;;105.55;68.22;;;;;;;;;;5096382;28;20028;-40
2022/01/01 04:28:59;;;;;;;119.88;73.72;;;;;;;;;;5096045;28;20048;-41
2022/01/01 04:31:26;;;;;;;108.97;69.40;;;;;;;;;;5096256;28;20027;-41
2022/01/01 04:33:52;;;;;;;107.55;69.63;;;;;;;;;;5096016;28;20044;-40
2022/01/01 04:36:18;;;;;;;104.85;68.68;;;;;;;;;;5096043;28;20016;-40
2022/01/01 04:38:45;;;;;;;93.63;63.55;;;;;;;;;;5096341;28;20032;-40
2022/01/01 04:41:15;;;;;;;99.35;65.75;;;;;;;;;;5096338;28;20048;-40
2022/01/01 04:43:41;;;;;;;99.35;66.15;;;;;;;;;;5095878;28;20032;-39
2022/01/01 04:46:08;;;;;;;95.22;62.13;;;;;;;;;;5096121;28;20024;-40
2022/01/01 04:48:37;;;;;;;88.10;58.72;;;;;;;;;;5095995;28;20020;-39
2022/01/01 04:51:06;;;;;;;90.25;59.60;;;;;;;;;;5095879;28;20377;-41
2022/01/01 04:53:33;;;;;;;86.85;57.45;;;;;;;;;;5095661;28;20032;-39
2022/01/01 04:56:03;;;;;;;85.32;55.80;;;;;;;;;;5095654;28;20016;-39
2022/01/01 04:58:29;;;;;;;82.90;55.42;;;;;;;;;;5095627;28;20506;-41
2022/01/01 05:00:55;;;;;;;82.75;55.30;;;;;;;;;;5095660;28;20443;-39
2022/01/01 05:03:23;;;;;;;89.15;57.30;;;;;;;;;;5095708;28;20038;-40
2022/01/01 05:05:49;;;;;;;75.72;53.55;;;;;;;;;;5095512;28;20516;-41
2022/01/01 05:08:15;;;;;;;80.72;55.03;;;;;;;;;;5095704;28;20442;-41
2022/01/01 05:10:42;;;;;;;87.25;56.78;;;;;;;;;;5095443;28;20027;-41
2022/01/01 05:13:08;;;;;;;82.82;53.50;;;;;;;;;;5095805;28;20103;-40
2022/01/01 05:15:34;;;;;;;74.00;50.47;;;;;;;;;;5095224;28;20107;-42
2022/01/01 05:18:00;;;;;;;69.93;49.78;;;;;;;;;;5095438;28;20025;-44
2022/01/01 05:20:27;;;;;;;71.53;49.80;;;;;;;;;;5095251;28;20030;-42
2022/01/01 05:22:53;;;;;;;73.28;50.03;;;;;;;;;;5095542;28;20047;-41
2022/01/01 05:25:19;;;;;;;71.75;49.45;;;;;;;;;;5095254;28;20020;-41
2022/01/01 05:27:45;;;;;;;66.93;46.72;;;;;;;;;;5094973;28;20123;-41
2022/01/01 05:30:12;;;;;;;69.47;46.53;;;;;;;;;;5093897;28;20099;-40
2022/01/01 05:32:38;;;;;;;66.40;45.90;;;;;;;;;;5093695;28;20397;-41
2022/01/01 05:35:04;;;;;;;61.35;44.00;;;;;;;;;;5093918;28;20350;-41
2022/01/01 05:37:30;;;;;;;58.20;42.30;;;;;;;;;;5094990;28;20020;-41
2022/01/01 05:39:57;;;;;;;60.97;41.15;;;;;;;;;;5094889;28;20103;-40
2022/01/01 05:42:23;;;;;;;58.28;41.20;;;;;;;;;;5094734;28;20094;-42
2022/01/01 05:44:49;;;;;;;55.22;39.38;;;;;;;;;;5094831;28;20537;-41
2022/01/01 05:47:15;;;;;;;52.20;38.47;;;;;;;;;;5094873;28;20095;-40
2022/01/01 05:49:41;;;;;;;51.70;38.33;;;;;;;;;;5094749;28;20023;-41
2022/01/01 05:52:09;;;;;;;53.13;38.05;;;;;;;;;;5094777;28;20024;-40
2022/01/01 05:54:36;;;;;;;47.45;35.50;;;;;;;;;;5094418;28;20077;-43
2022/01/01 05:57:02;;;;;;;49.40;36.58;;;;;;;;;;5094670;28;20058;-43
2022/01/01 05:59:28;;;;;;;53.53;38.45;;;;;;;;;;5094338;28;20406;-40
2022/01/01 06:01:54;;;;;;;53.70;39.20;;;;;;;;;;5094390;28;20028;-41
2022/01/01 06:04:21;;;;;;;55.67;38.63;;;;;;;;;;5094531;28;20541;-40
2022/01/01 06:06:47;;;;;;;50.75;38.30;;;;;;;;;;5094210;28;20020;-41
2022/01/01 06:09:13;;;;;;;54.22;39.35;;;;;;;;;;5094326;28;20048;-41
2022/01/01 06:11:39;;;;;;;60.45;41.50;;;;;;;;;;5094384;28;20024;-41
2022/01/01 06:14:05;;;;;;;52.88;38.03;;;;;;;;;;5094003;28;20039;-40
2022/01/01 06:16:31;;;;;;;50.05;37.97;;;;;;;;;;5094094;28;20484;-40
2022/01/01 06:18:57;;;;;;;48.25;35.85;;;;;;;;;;5094176;28;20035;-41
2022/01/01 06:21:23;;;;;;;53.83;35.92;;;;;;;;;;5094081;28;20020;-41
2022/01/01 06:23:49;;;;;;;49.15;34.85;;;;;;;;;;5094116;28;20026;-44
2022/01/01 06:26:15;;;;;;;44.72;32.65;;;;;;;;;;5093960;28;20027;-40
2022/01/01 06:28:42;;;;;;;42.95;30.45;;;;;;;;;;5093670;28;20040;-42
2022/01/01 06:31:12;;;;;;;41.28;29.45;;;;;;;;;;5093857;28;20051;-40
2022/01/01 06:33:38;;;;;;;44.03;31.98;;;;;;;;;;5093979;28;20470;-42
2022/01/01 06:36:11;;;;;;;45.70;32.17;;;;;;;;;;5093879;28;20043;-41
2022/01/01 06:38:37;;;;;;;40.40;30.70;;;;;;;;;;5092825;28;20036;-40
2022/01/01 06:41:06;;;;;;;38.92;29.45;;;;;;;;;;5094022;28;20078;-41
2022/01/01 06:43:34;;;;;;;42.05;29.02;;;;;;;;;;5093613;28;20024;-40
2022/01/01 06:46:00;;;;;;;42.95;29.60;;;;;;;;;;5093490;28;20152;-42
2022/01/01 06:48:29;;;;;;;45.90;31.58;;;;;;;;;;5093605;28;20405;-41
2022/01/01 06:50:55;;;;;;;41.30;28.98;;;;;;;;;;5093599;28;20024;-46
2022/01/01 06:53:22;;;;;;;40.67;28.67;;;;;;;;;;5093661;28;20026;-40
2022/01/01 06:55:48;;;;;;;41.45;28.63;;;;;;;;;;5093216;28;20481;-41
2022/01/01 06:58:18;;;;;;;41.65;27.40;;;;;;;;;;5093572;28;20024;-42
2022/01/01 07:00:44;;;;;;;1999.90;999.90;;;;;;;;;;5093627;28;20053;-41
2022/01/01 07:03:10;;;;;;;44.40;33.10;;;;;;;;;;5093679;28;20020;-41
2022/01/01 07:05:38;;;;;;;1999.90;999.90;;;;;;;;;;5093308;28;20022;-41
2022/01/01 07:08:05;;;;;;;1999.90;999.90;;;;;;;;;;5093515;28;20160;-40
2022/01/01 07:10:31;;;;;;;48.45;32.95;;;;;;;;;;5093297;28;20027;-42
2022/01/01 07:12:57;;;;;;;39.63;27.45;;;;;;;;;;5093272;28;20024;-45
2022/01/01 07:15:23;;;;;;;39.35;25.38;;;;;;;;;;5093428;28;20042;-41
2022/01/01 07:17:49;;;;;;;42.72;25.42;;;;;;;;;;5093336;28;20031;-41
2022/01/01 07:20:15;;;;;;;48.90;28.65;;;;;;;;;;5093300;28;20111;-42
2022/01/01 07:22:42;;;;;;;54.40;30.17;;;;;;;;;;5093375;28;20024;-41
2022/01/01 07:25:13;;;;;;;51.38;29.60;;;;;;;;;;5093226;28;20073;-42
2022/01/01 07:27:40;;;;;;;41.47;25.05;;;;;;;;;;5093195;28;20044;-42
2022/01/01 07:30:07;;;;;;;43.38;27.00;;;;;;;;;;5093585;28;20052;-40
2022/01/01 07:32:33;;;;;;;43.92;25.83;;;;;;;;;;5093430;28;20073;-39
2022/01/01 07:34:59;;;;;;;40.78;23.98;;;;;;;;;;5092974;28;20042;-42
2022/01/01 07:37:25;;;;;;;57.80;31.58;;;;;;;;;;5093184;28;20032;-42
2022/01/01 07:39:51;;;;;;;70.07;42.30;;;;;;;;;;5093339;28;20119;-41
2022/01/01 07:42:17;;;;;;;60.08;41.60;;;;;;;;;;5093111;28;20028;-42
2022/01/01 07:44:43;;;;;;;47.03;36.20;;;;;;;;;;5093567;28;20028;-42
2022/01/01 07:47:09;;;;;;;34.33;25.30;;;;;;;;;;5093136;28;20093;-42
2022/01/01 07:49:35;;;;;;;23.40;19.85;;;;;;;;;;5093028;28;20024;-42
2022/01/01 07:52:01;;;;;;;22.58;17.77;;;;;;;;;;5092863;28;20016;-41
2022/01/01 07:54:28;;;;;;;19.73;15.27;;;;;;;;;;5092900;28;20123;-42
2022/01/01 07:56:54;;;;;;;21.98;16.13;;;;;;;;;;5093186;28;20035;-42
2022/01/01 07:59:20;;;;;;;24.60;16.67;;;;;;;;;;5095457;28;20561;-42
2022/01/01 08:01:46;;;;;;;21.75;15.63;;;;;;;;;;5096952;28;20389;-42
2022/01/01 08:04:12;;;;;;;20.25;16.48;;;;;;;;;;5096829;28;20151;-42
2022/01/01 08:06:38;;;;;;;22.17;17.42;;;;;;;;;;5096771;28;20024;-42
2022/01/01 08:09:04;;;;;;;26.75;19.88;;;;;;;;;;5096646;28;20031;-43
2022/01/01 08:11:33;;;;;;;28.00;20.83;;;;;;;;;;5096557;28;20056;-43
2022/01/01 08:13:59;;;;;;;23.60;17.38;;;;;;;;;;5096547;28;20118;-42
2022/01/01 08:16:25;;;;;;;23.52;16.73;;;;;;;;;;5096703;28;20032;-43
2022/01/01 08:18:51;;;;;;;22.65;16.65;;;;;;;;;;5096615;28;20044;-43
2022/01/01 08:21:17;;;;;;;20.70;15.95;;;;;;;;;;5096332;28;20091;-42
2022/01/01 08:23:43;;;;;;;22.90;17.95;;;;;;;;;;5095038;28;20052;-43
2022/01/01 08:26:09;;;;;;;20.35;16.15;;;;;;;;;;5096185;28;20059;-42
2022/01/01 08:28:36;;;;;;;18.42;14.75;;;;;;;;;;5095967;28;20055;-43
2022/01/01 08:31:02;;;;;;;16.45;14.10;;;;;;;;;;5096301;28;20036;-43
2022/01/01 08:33:28;;;;;;;17.05;15.00;;;;;;;;;;5096126;28;20027;-44
2022/01/01 08:35:54;;;;;;;16.08;14.07;;;;;;;;;;5095944;28;20036;-43
2022/01/01 08:38:20;;;;;;;18.33;14.68;;;;;;;;;;5096035;28;20024;-43
2022/01/01 08:40:48;;;;;;;18.10;14.85;;;;;;;;;;5096057;28;20028;-43
2022/01/01 08:43:15;;;;;;;17.88;15.88;;;;;;;;;;5095810;28;20024;-42
2022/01/01 08:45:43;;;;;;;18.27;15.15;;;;;;;;;;5096121;28;20028;-42
2022/01/01 08:48:09;;;;;;;17.30;15.23;;;;;;;;;;5095968;28;20024;-44
2022/01/01 08:50:35;;;;;;;18.75;16.58;;;;;;;;;;5095886;28;20024;-41
2022/01/01 08:53:01;;;;;;;24.00;18.90;;;;;;;;;;5094775;28;20032;-44
2022/01/01 08:55:29;;;;;;;21.30;16.75;;;;;;;;;;5095642;28;20038;-45
2022/01/01 08:57:57;;;;;;;23.17;16.38;;;;;;;;;;5095946;28;20020;-41
2022/01/01 09:00:23;;;;;;;32.53;22.83;;;;;;;;;;5095747;28;20036;-43
2022/01/01 09:02:50;;;;;;;32.35;20.65;;;;;;;;;;5095491;28;20028;-46
2022/01/01 09:05:16;;;;;;;30.95;21.13;;;;;;;;;;5095545;28;20016;-47
2022/01/01 09:07:42;;;;;;;27.83;18.92;;;;;;;;;;5095550;28;20024;-46
2022/01/01 09:10:08;;;;;;;25.02;16.95;;;;;;;;;;5094181;28;20424;-42
2022/01/01 09:12:34;;;;;;;21.95;17.77;;;;;;;;;;5095355;28;20031;-43
2022/01/01 09:15:02;;;;;;;21.60;16.83;;;;;;;;;;5095224;28;20038;-42
2022/01/01 09:17:29;;;;;;;18.90;16.77;;;;;;;;;;5095192;28;20016;-42
2022/01/01 09:19:55;;;;;;;20.13;17.55;;;;;;;;;;5095179;28;20032;-42
2022/01/01 09:22:25;;;;;;;19.55;17.40;;;;;;;;;;5095172;28;20028;-41
2022/01/01 09:24:51;;;;;;;20.85;17.75;;;;;;;;;;5095222;28;20160;-42
2022/01/01 09:27:17;;;;;;;23.40;19.35;;;;;;;;;;5094931;28;20044;-42
2022/01/01 09:29:43;;;;;;;26.92;19.77;;;;;;;;;;5095064;28;20487;-42
2022/01/01 09:32:10;;;;;;;20.92;18.08;;;;;;;;;;5094843;28;20118;-42
2022/01/01 09:34:37;;;;;;;17.52;15.63;;;;;;;;;;5094860;28;20031;-41
2022/01/01 09:37:03;;;;;;;18.20;15.40;;;;;;;;;;5095040;28;20389;-42
2022/01/01 09:39:29;;;;;;;19.50;16.52;;;;;;;;;;5094459;28;20115;-42
2022/01/01 09:41:56;;;;;;;21.70;17.10;;;;;;;;;;5093925;28;20050;-42
2022/01/01 09:44:22;;;;;;;25.80;22.92;;;;;;;;;;5091416;28;20024;-42
2022/01/01 09:46:50;;;;;;;17.15;14.90;;;;;;;;;;5094244;28;20107;-41
2022/01/01 09:49:16;;;;;;;21.50;17.42;;;;;;;;;;5094058;28;20067;-42
2022/01/01 09:51:43;;;;;;;19.27;16.23;;;;;;;;;;5091231;28;20035;-42
2022/01/01 09:54:10;;;;;;;42.75;32.38;;;;;;;;;;5093892;28;20088;-40
2022/01/01 09:56:36;;;;;;;24.27;19.15;;;;;;;;;;5094168;28;20027;-41
2022/01/01 09:59:03;;;;;;;17.75;14.75;;;;;;;;;;5091004;28;20548;-42
2022/01/01 10:01:29;;;;;;;18.90;15.48;;;;;;;;;;5093854;28;20016;-40
2022/01/01 10:03:58;;;;;;;22.45;16.00;;;;;;;;;;5093669;28;20385;-42
2022/01/01 10:06:28;;;;;;;71.35;49.92;;;;;;;;;;5091585;28;20035;-44
2022/01/01 10:08:59;;;;;;;110.22;89.80;;;;;;;;;;5093815;28;20466;-42
2022/01/01 10:11:26;;;;;;;90.80;73.57;;;;;;;;;;5091153;28;20099;-43
2022/01/01 10:13:52;;;;;;;87.72;57.92;;;;;;;;;;5093632;28;20024;-40
2022/01/01 10:16:18;;;;;;;88.13;54.72;;;;;;;;;;5092222;28;20036;-42
2022/01/01 10:18:54;;;;;;;24.92;16.55;;;;;;;;;;5093529;28;20008;-42
2022/01/01 10:21:26;;;;;;;18.00;14.00;;;;;;;;;;5093062;28;20066;-41
2022/01/01 10:23:54;;;;;;;24.73;19.33;;;;;;;;;;5092872;28;20043;-42
2022/01/01 10:29:08;;;;;;;17.20;12.32;;;;;;;;;;5093804;28;20468;-41
2022/01/01 10:31:35;;;;;;;11.82;9.63;;;;;;;;;;5093925;28;20099;-41
2022/01/01 10:34:01;;;;;;;29.60;23.35;;;;;;;;;;5093809;28;20027;-41
2022/01/01 10:36:30;;;;;;;22.08;16.90;;;;;;;;;;5093669;28;20024;-41
2022/01/01 10:39:13;;;;;;;15.30;12.68;;;;;;;;;;5070496;28;20382;-41
2022/01/01 10:41:50;;;;;;;16.20;11.07;;;;;;;;;;5062510;28;20389;-43
2022/01/01 10:44:18;;;;;;;70.72;48.63;;;;;;;;;;5062323;28;20501;-43
2022/01/01 10:46:45;;;;;;;18.00;11.95;;;;;;;;;;5062261;28;20032;-41
2022/01/01 10:49:43;;;;;;;18.95;12.07;;;;;;;;;;5062179;28;20067;-39
2022/01/01 10:52:12;;;;;;;16.95;12.15;;;;;;;;;;5062241;28;20036;-40
2022/01/01 10:54:39;;;;;;;21.23;14.32;;;;;;;;;;5062253;28;20122;-41
2022/01/01 10:57:08;;;;;;;14.80;9.70;;;;;;;;;;5062434;28;20029;-40
2022/01/01 10:59:43;;;;;;;11.10;8.70;;;;;;;;;;5060914;28;20051;-42
2022/01/01 11:02:11;;;;;;;51.20;33.25;;;;;;;;;;5062116;28;20053;-43
2022/01/01 11:04:37;;;;;;;28.40;16.40;;;;;;;;;;5063236;28;20028;-39
2022/01/01 11:07:03;;;;;;;38.10;25.08;;;;;;;;;;5062044;28;20024;-40
2022/01/01 11:09:32;;;;;;;40.45;26.85;;;;;;;;;;5063190;28;20349;-45
2022/01/01 11:12:03;;;;;;;22.17;14.10;;;;;;;;;;5063207;28;20040;-43
2022/01/01 11:14:33;;;;;;;24.65;15.52;;;;;;;;;;5061811;28;20024;-43
2022/01/01 11:16:59;;;;;;;86.32;50.72;;;;;;;;;;5061864;28;20024;-45
2022/01/01 11:19:26;;;;;;;227.43;141.63;;;;;;;;;;5063341;28;20397;-43
2022/01/01 11:21:55;;;;;;;218.52;133.82;;;;;;;;;;5062092;28;20421;-43
2022/01/01 11:24:25;;;;;;;27.75;18.33;;;;;;;;;;5061674;28;20316;-45
2022/01/01 11:26:54;;;;;;;59.13;36.88;;;;;;;;;;5061500;28;20086;-45
2022/01/01 11:29:20;;;;;;;89.88;49.60;;;;;;;;;;5061815;28;20028;-43
2022/01/01 11:31:47;;;;;;;66.18;38.13;;;;;;;;;;5062699;28;20419;-44
2022/01/01 11:34:14;;;;;;;102.13;60.05;;;;;;;;;;5064393;28;20012;-45
2022/01/01 11:36:41;;;;;;;90.47;52.63;;;;;;;;;;5064375;28;20037;-46
2022/01/01 11:39:07;;;;;;;66.03;38.72;;;;;;;;;;5065595;28;20490;-44
2022/01/01 11:41:44;;;;;;;75.88;44.78;;;;;;;;;;5065698;28;20035;-43
2022/01/01 11:44:25;;;;;;;67.50;36.47;;;;;;;;;;5065848;28;20081;-44
2022/01/01 11:47:03;;;;;;;41.38;23.40;;;;;;;;;;5065636;28;20071;-43
2022/01/01 11:49:30;;;;;;;24.80;15.90;;;;;;;;;;5076943;28;20095;-43
2022/01/01 11:51:57;;;;;;;36.35;23.80;;;;;;;;;;5076616;28;20107;-45
2022/01/01 11:54:29;;;;;;;23.45;14.45;;;;;;;;;;5076527;28;20021;-43
2022/01/01 11:56:58;;;;;;;24.70;14.77;;;;;;;;;;5076580;28;20028;-43
2022/01/01 11:59:33;;;;;;;54.58;33.17;;;;;;;;;;5076734;28;20028;-44
2022/01/01 12:02:01;;;;;;;47.30;28.38;;;;;;;;;;5076393;28;20105;-44
2022/01/01 12:04:36;;;;;;;31.33;19.10;;;;;;;;;;5076282;28;20031;-43
2022/01/01 12:07:20;;;;;;;49.15;29.33;;;;;;;;;;5076152;28;20064;-43
2022/01/01 12:09:50;;;;;;;93.93;52.63;;;;;;;;;;5076399;28;20025;-44
2022/01/01 12:12:18;;;;;;;108.47;61.35;;;;;;;;;;5076416;28;20397;-45
2022/01/01 12:14:45;;;;;;;147.25;83.60;;;;;;;;;;5076516;28;20073;-45
2022/01/01 12:17:15;;;;;;;112.40;61.55;;;;;;;;;;5076282;28;20032;-45
2022/01/01 12:19:43;;;;;;;84.20;47.83;;;;;;;;;;5076201;28;20047;-45
2022/01/01 12:22:10;;;;;;;106.55;61.58;;;;;;;;;;5076371;28;20436;-44
2022/01/01 12:24:40;;;;;;;212.95;120.88;;;;;;;;;;5076147;28;20025;-44
2022/01/01 12:27:12;;;;;;;168.02;94.50;;;;;;;;;;5075774;28;20044;-49
2022/01/01 12:29:39;;;;;;;79.18;43.28;;;;;;;;;;5076086;28;20064;-45
2022/01/01 12:32:08;;;;;;;118.63;60.70;;;;;;;;;;5075916;28;20111;-44
2022/01/01 12:34:36;;;;;;;125.55;67.28;;;;;;;;;;5075935;28;20078;-45
2022/01/01 12:37:04;;;;;;;135.15;76.05;;;;;;;;;;5076091;28;20034;-44
2022/01/01 12:39:30;;;;;;;36.95;20.67;;;;;;;;;;5084592;28;20024;-43
2022/01/01 12:41:57;;;;;;;152.75;84.68;;;;;;;;;;5095484;28;20020;-43
2022/01/01 12:44:25;;;;;;;112.22;63.80;;;;;;;;;;5094961;28;20445;-43
2022/01/01 12:46:58;;;;;;;85.80;39.45;;;;;;;;;;5092632;28;20490;-42
2022/01/01 12:49:24;;;;;;;89.53;46.72;;;;;;;;;;5095022;28;20063;-46
2022/01/01 12:51:56;;;;;;;116.72;61.70;;;;;;;;;;5094592;28;20058;-42
2022/01/01 12:54:22;;;;;;;186.27;98.10;;;;;;;;;;5095245;28;20016;-43
2022/01/01 12:56:49;;;;;;;68.97;39.28;;;;;;;;;;5095373;28;20350;-42
2022/01/01 12:59:17;;;;;;;78.57;41.95;;;;;;;;;;5095084;28;20456;-42
2022/01/01 13:01:46;;;;;;;100.22;50.30;;;;;;;;;;5094903;28;20024;-45
2022/01/01 13:04:14;;;;;;;68.30;38.33;;;;;;;;;;5095626;28;20077;-43
2022/01/01 13:06:44;;;;;;;62.08;32.58;;;;;;;;;;5094714;28;20504;-43
2022/01/01 13:09:12;;;;;;;24.23;13.85;;;;;;;;;;5074061;28;20425;-43
2022/01/01 13:11:39;;;;;;;71.40;38.63;;;;;;;;;;5074873;28;20025;-41
2022/01/01 13:14:08;;;;;;;82.10;45.03;;;;;;;;;;5074898;28;20021;-42
2022/01/01 13:16:34;;;;;;;57.65;29.95;;;;;;;;;;5072360;28;20025;-43
2022/01/01 13:19:00;;;;;;;80.60;44.83;;;;;;;;;;5070588;28;20032;-42
2022/01/01 13:21:26;;;;;;;27.90;15.23;;;;;;;;;;5070719;28;20394;-43
2022/01/01 13:23:53;;;;;;;21.55;12.68;;;;;;;;;;5070626;28;20478;-43
2022/01/01 13:26:19;;;;;;;28.70;14.32;;;;;;;;;;5071914;28;20044;-42
2022/01/01 13:28:45;;;;;;;44.55;21.90;;;;;;;;;;5074709;28;20060;-44
2022/01/01 13:31:13;;;;;;;41.38;16.95;;;;;;;;;;5074642;28;20390;-42
2022/01/01 13:33:41;;;;;;;31.13;14.57;;;;;;;;;;5074840;28;20108;-43
2022/01/01 13:36:07;;;;;;;37.88;18.65;;;;;;;;;;5074633;28;20025;-43
2022/01/01 13:38:33;;;;;;;35.13;15.02;;;;;;;;;;5082112;28;20032;-42
2022/01/01 13:41:01;;;;;;;20.00;11.32;;;;;;;;;;5094718;28;20023;-42
2022/01/01 13:43:31;;;;;;;38.78;19.90;;;;;;;;;;5094321;28;20020;-42
2022/01/01 13:46:10;;;;;;;26.25;13.85;;;;;;;;;;5094415;28;20038;-43
2022/01/01 13:48:41;;;;;;;24.58;14.10;;;;;;;;;;5093338;28;20351;-42
2022/01/01 13:51:07;;;;;;;28.48;15.32;;;;;;;;;;5094626;28;20521;-41
2022/01/01 13:53:35;;;;;;;34.08;18.20;;;;;;;;;;5094526;28;20020;-43
2022/01/01 13:56:06;;;;;;;33.05;19.60;;;;;;;;;;5093806;28;20016;-43
2022/01/01 13:58:44;;;;;;;28.50;16.45;;;;;;;;;;5094460;28;20023;-42
2022/01/01 14:01:10;;;;;;;30.33;16.88;;;;;;;;;;5094471;28;20032;-43
2022/01/01 14:03:39;;;;;;;32.33;17.65;;;;;;;;;;5094384;28;20481;-42
2022/01/01 14:06:05;;;;;;;37.58;20.13;;;;;;;;;;5094211;28;20048;-42
2022/01/01 14:08:31;;;;;;;59.65;32.97;;;;;;;;;;5094191;28;20016;-41
2022/01/01 14:10:59;;;;;;;66.00;37.15;;;;;;;;;;5093415;28;20358;-41
2022/01/01 14:13:29;;;;;;;52.42;29.55;;;;;;;;;;5093785;28;20016;-41
2022/01/01 14:15:55;;;;;;;84.43;52.15;;;;;;;;;;5090833;28;20016;-44
2022/01/01 14:18:32;;;;;;;103.10;58.58;;;;;;;;;;5085761;28;20495;-41